Terminal Aerodrome Forecast
Issued by NWS

Home | Current Version | Previous Version | Text Only | Print | Product List | Glossary On
Versions: 1 2 3 4 5 6 7 8 9 10 11 12 13 14 15 16 17 18 19 20 21 22 23 24 25 26 27
000
FTUS41 KBUF 250900 AAA
TAFIAG
TAF AMD
KIAG 250900Z 2509/2606 17008KT 6SM -SHRA SCT040 OVC070
     FM251100 22013G22KT 3SM SHRA VCTS OVC025CB
     FM251400 23016G30KT 6SM -SHRA OVC012
     FM251600 24020G34KT P6SM SCT025 BKN120
     FM251900 24025G43KT P6SM OVC200
     FM260000 25018G32KT P6SM VCSH OVC035=

USA.gov is the U.S. government's official web portal to all federal, state and local government web resources and services.